Latest Coastal Weather Observations for Learmonth

IDW60701

Issued at 2:45 pm WST Wednesday 26 November 2014 (issued every 10 minutes, with the page automatically refreshed every 10 minutes)

About coastal observations | Map of coastal stations | Coastal observations for WA | Marine services | Other Formats
Station Details ID: 005007 Name: LEARMONTH AIRPORT Lat: -22.24 Lon: 114.10 Height: 5.0 m
Data from the previous 72 hours. | See also: Recent months at Learmonth
Date/Time
WST
Temp

°C
Wind Pressure Rain
since 9am
mm
Weather Cloud Vis
km
Sea
Height
m
Swell
Dir
 
Speed
knots
Gust
knots
hPa Trend Height
m
Period
s
Dir
26/02:30pm 32.7 NW 12 20 1007.8 - 0.0 - - 10 - - - -
26/02:00pm 33.3 N 12 14 1007.9 - 0.0 - - 10 - - - -
26/01:30pm 33.6 NNW 11 18 1008.0 - 0.0 - - 10 - - - -
26/01:00pm 32.5 N 14 18 1008.1 - 0.0 - - 10 - - - -
26/12:30pm 31.0 NNE 15 20 1008.2 - 0.0 - - 10 - - - -
26/12:00pm 30.0 NNE 15 19 1008.5 R 0.0 Haze Mostly clear 20 - - - -
26/11:30am 29.8 NE 15 20 1008.9 - 0.0 - - 10 - - - -
26/11:00am 28.2 NNE 13 17 1009.2 - 0.0 - - 10 - - - -
26/10:30am 29.2 NNE 11 13 1009.5 - 0.0 - - 10 - - - -
26/10:00am 28.0 NE 9 13 1009.7 - 0.0 - - 10 - - - -
26/09:30am 28.1 NNE 9 12 1009.8 - 0.0 - - 10 - - - -
26/09:00am 27.9 N 7 10 1009.7 F 0.0 Fine Partly cloudy 30 - - - -
26/08:30am 27.1 N 6 10 1010.1 - 0.0 - - 10 - - - -
26/08:00am 25.4 NNW 8 10 1010.0 - 0.0 - Mostly clear 10 - - - -
26/07:30am 24.6 NNE 1 5 1010.4 - 0.0 - Mostly clear 10 - - - -
26/07:00am 23.8 E 4 6 1010.6 - 0.0 - Mostly clear 10 - - - -
26/06:30am 23.6 SE 5 7 1010.4 - 0.0 - Mostly clear 10 - - - -
26/06:00am 23.3 SE 6 8 1010.1 R 0.0 Fine Mostly cloudy 15 - - - -
26/05:30am 23.0 SSE 6 7 1009.7 - 0.0 - Cloudy 10 - - - -
26/05:00am 23.0 S 5 8 1009.3 - 0.0 - Cloudy 10 - - - -
26/04:30am 23.0 SSW 6 7 1009.0 - 0.0 - Cloudy 10 - - - -
26/04:00am 22.9 SW 8 9 1008.8 - 0.0 - Partly cloudy 10 - - - -
26/03:30am 23.1 WSW 9 12 1008.6 - 0.0 - Partly cloudy 10 - - - -
26/03:00am 23.2 SW 7 10 1008.4 - 0.0 - Mostly cloudy 10 - - - -
26/02:30am 23.1 SW 10 13 1008.4 - 0.0 - Partly cloudy 10 - - - -
26/02:22am 23.1 WSW 10 12 1008.3 - 0.0 - Partly cloudy 10 - - - -
26/02:00am 23.0 WSW 10 13 1008.4 - 0.0 - Partly cloudy 10 - - - -
26/01:33am 22.8 WSW 10 15 1008.3 - 0.0 - Partly cloudy 10 - - - -
26/01:30am 22.8 WSW 10 15 1008.3 - 0.0 - Partly cloudy 10 - - - -
26/01:00am 22.7 WSW 11 15 1008.4 - 0.0 - Partly cloudy 10 - - - -
26/12:57am 22.7 WSW 11 15 1008.4 - 0.0 - Partly cloudy 10 - - - -
26/12:44am 22.8 SW 8 11 1008.6 - 0.0 - Partly cloudy 10 - - - -
26/12:30am 22.8 WSW 9 13 1008.7 - 0.0 - - 10 - - - -
26/12:00am 22.9 WSW 11 15 1008.8 - 0.0 - - 10 - - - -
 
Date/Time
WST
Temp

°C
Wind Pressure Rain
since 9am
mm
Weather Cloud Vis
km
Sea
Height
m
Swell
Dir
 
Speed
knots
Gust
knots
hPa Trend Height
m
Period
s
Dir
25/11:30pm 23.0 WSW 10 13 1008.8 - 0.0 - - 10 - - - -
25/11:00pm 23.1 WSW 10 13 1008.9 - 0.0 - - 10 - - - -
25/10:30pm 23.2 WSW 12 15 1008.9 - 0.0 - - 10 - - - -
25/10:00pm 23.4 WSW 11 15 1009.0 - 0.0 - - 10 - - - -
25/09:30pm 23.6 WSW 13 18 1008.7 - 0.0 - - 10 - - - -
25/09:00pm 23.8 WSW 12 16 1008.4 - 0.0 - - 10 - - - -
25/08:30pm 24.0 W 12 15 1008.4 - 0.0 - - 10 - - - -
25/08:00pm 24.2 W 16 21 1008.1 - 0.0 - - 10 - - - -
25/07:30pm 24.6 W 17 22 1007.9 - 0.0 - - 10 - - - -
25/07:00pm 25.2 W 18 22 1007.8 - 0.0 - - 10 - - - -
25/06:30pm 26.2 W 16 21 1007.3 - 0.0 - - 10 - - - -
25/06:00pm 27.4 W 16 20 1007.1 - 0.0 - - 10 - - - -
25/05:30pm 29.8 W 17 20 1007.0 - 0.0 - - 10 - - - -
25/05:00pm 31.7 W 17 20 1006.8 - 0.0 - - 10 - - - -
25/04:30pm 33.3 W 14 17 1006.7 - 0.0 - - 10 - - - -
25/04:00pm 33.7 W 13 16 1006.8 - 0.0 - - 10 - - - -
25/03:30pm 35.0 W 14 17 1007.2 - 0.0 - - 10 - - - -
25/03:00pm 36.1 W 11 15 1007.3 R 0.0 Fine Mostly clear 30 - - - -
25/02:30pm 34.6 NNE 9 13 1007.5 - 0.0 - - 10 - - - -
25/02:00pm 34.2 NNE 10 13 1007.7 - 0.0 - - 10 - - - -
25/01:30pm 34.1 NNE 10 12 1008.1 - 0.0 - - 10 - - - -
25/01:00pm 32.9 NNE 11 13 1008.5 - 0.0 - - 10 - - - -
25/12:30pm 31.8 NNE 11 14 1008.8 - 0.0 - - 10 - - - -
25/12:00pm 30.5 NE 11 13 1009.0 R 0.0 Fine Mostly clear 30 - - - -
25/11:30am 31.7 NE 10 12 1009.3 - 0.0 - - 10 - - - -
25/11:00am 31.0 NE 9 11 1009.6 - 0.0 - - 10 - - - -
25/10:30am 30.2 NE 10 13 1009.9 - 0.0 - - 10 - - - -
25/10:00am 30.4 ENE 9 11 1010.0 - 0.0 - - 10 - - - -
25/09:30am 29.6 ENE 7 11 1010.2 - 0.0 - - 10 - - - -
25/09:00am 30.3 E 3 7 1010.1 F 0.0 Fine Clear 30 - - - -
25/08:30am 29.8 SW 3 6 1010.3 - 0.0 - - 10 - - - -
25/08:00am 27.7 SW 4 5 1010.3 - 0.0 - - 10 - - - -
25/07:30am 26.0 SW 6 8 1010.1 - 0.0 - - 10 - - - -
25/07:00am 23.8 WSW 5 7 1010.0 - 0.0 - - 10 - - - -
25/06:30am 21.6 WSW 4 6 1009.7 - 0.0 - - 10 - - - -
25/06:00am 19.6 WSW 6 7 1009.6 F 0.0 Mist Clear 10 - - - -
25/05:30am 18.7 WSW 6 7 1009.6 - 0.0 - - 10 - - - -
25/05:00am 18.3 SW 6 8 1009.6 - 0.0 - - 10 - - - -
25/04:30am 18.6 S 6 7 1009.7 - 0.0 - - 10 - - - -
25/04:00am 19.3 ESE 6 9 1009.8 - 0.0 - - 10 - - - -
25/03:30am 19.6 SSW 5 6 1009.6 - 0.0 - - 10 - - - -
25/03:00am 20.1 WSW 5 8 1009.6 - 0.0 - - 10 - - - -
25/02:30am 19.7 SSW 5 6 1010.0 - 0.0 - - 10 - - - -
25/02:00am 20.7 S 4 6 1010.1 - 0.0 - - 10 - - - -
25/01:30am 21.6 SSW 7 10 1010.2 - 0.0 - - 10 - - - -
25/01:00am 21.9 SSW 7 10 1010.1 - 0.0 - - 10 - - - -
25/12:30am 22.2 WSW 13 18 1009.9 - 0.0 - - 10 - - - -
25/12:00am 22.2 SW 11 15 1010.4 - 0.0 - - 10 - - - -
 
Date/Time
WST
Temp

°C
Wind Pressure Rain
since 9am
mm
Weather Cloud Vis
km
Sea
Height
m
Swell
Dir
 
Speed
knots
Gust
knots
hPa Trend Height
m
Period
s
Dir
24/11:30pm 22.2 SW 12 18 1010.7 - 0.0 - - 10 - - - -
24/11:00pm 22.3 SW 12 17 1010.9 - 0.0 - - 10 - - - -
24/10:30pm 22.4 WSW 12 15 1011.1 - 0.0 - - 10 - - - -
24/10:00pm 22.6 SW 12 16 1011.0 - 0.0 - - 10 - - - -
24/09:30pm 22.8 WSW 13 18 1011.0 - 0.0 - - 10 - - - -
24/09:00pm 23.0 WSW 11 15 1010.8 - 0.0 - - 10 - - - -
24/08:30pm 23.2 WSW 13 17 1010.9 - 0.0 - - 10 - - - -
24/08:00pm 23.5 WSW 11 15 1010.7 - 0.0 - - 10 - - - -
24/07:30pm 23.9 WSW 13 16 1010.5 - 0.0 - - 10 - - - -
24/07:00pm 24.3 WSW 13 17 1010.2 - 0.0 - - 10 - - - -
24/06:30pm 25.7 WSW 14 17 1009.8 - 0.0 - - 10 - - - -
24/06:00pm 27.0 W 14 18 1009.4 - 0.0 - - 10 - - - -
24/05:30pm 28.1 WSW 15 20 1009.1 - 0.0 - - 10 - - - -
24/05:00pm 29.1 W 16 20 1008.8 - 0.0 - - 10 - - - -
24/04:30pm 31.6 W 14 17 1008.9 - 0.0 - - 10 - - - -
24/04:00pm 32.2 W 11 15 1008.8 - 0.0 - - 10 - - - -
24/03:30pm 32.7 W 11 15 1008.9 - 0.0 - - 10 - - - -
24/03:00pm 32.9 W 12 15 1009.1 R 0.0 Haze Mostly clear 25 - - - -
24/02:30pm 33.9 N 9 11 1009.2 - 0.0 - - 10 - - - -
24/02:00pm 33.2 NNE 10 12 1009.5 - 0.0 - - 10 - - - -
24/01:30pm 33.1 NE 9 12 1009.8 - 0.0 - - 10 - - - -
24/01:00pm 32.5 NE 10 13 1010.1 - 0.0 - - 10 - - - -
24/12:30pm 32.2 ENE 10 13 1010.2 - 0.0 - - 10 - - - -
24/12:00pm 32.1 NE 10 12 1010.5 F 0.0 Haze Mostly clear 25 - - - -
24/11:30am 32.4 ENE 9 11 1010.7 - 0.0 - - 10 - - - -
24/11:00am 32.3 E 7 15 1011.0 - 0.0 - - 10 - - - -
24/10:30am 32.2 SSW 5 11 1011.5 - 0.0 - - 10 - - - -
24/10:00am 30.3 S 7 10 1011.9 - 0.0 - - 10 - - - -
24/09:30am 28.5 SSW 5 8 1012.1 - 0.0 - - 10 - - - -
24/09:00am 27.6 SSW 9 13 1012.2 F 0.0 Haze Mostly clear 25 - - - -
24/08:30am 25.6 SSW 11 15 1012.3 - 0.0 - - 10 - - - -
24/08:00am 24.0 SSW 14 18 1012.6 - 0.0 - - 10 - - - -
24/07:30am 22.7 SSW 15 19 1012.6 - 0.0 - - 10 - - - -
24/07:00am 21.4 SSW 14 18 1012.5 - 0.0 - - 10 - - - -
24/06:30am 20.2 SSW 13 16 1012.4 - 0.0 - - 10 - - - -
24/06:00am 19.2 SSW 11 15 1012.1 F 0.0 Fine Mostly clear 30 - - - -
24/05:30am 18.9 SSW 11 16 1011.9 - 0.0 - - 10 - - - -
24/05:00am 19.0 SSW 13 17 1011.9 - 0.0 - - 10 - - - -
24/04:30am 19.1 SSW 13 17 1011.6 - 0.0 - - 10 - - - -
24/04:00am 19.4 SSW 13 18 1011.5 - 0.0 - - 10 - - - -
24/03:30am 19.6 SSW 13 17 1011.5 - 0.0 - - 10 - - - -
24/03:00am 19.6 SSW 12 16 1011.5 - 0.0 - - 10 - - - -
24/02:30am 19.8 SSW 13 19 1011.6 - 0.0 - - 10 - - - -
24/02:00am 20.0 SSW 14 18 1011.6 - 0.0 - - 10 - - - -
24/01:30am 20.1 SSW 14 19 1011.6 - 0.0 - - 10 - - - -
24/01:00am 20.4 SSW 14 19 1012.1 - 0.0 - - 10 - - - -
24/12:30am 20.7 SSW 15 19 1012.2 - 0.0 - - 10 - - - -
24/12:00am 21.0 SSW 14 19 1012.2 - 0.0 - - 10 - - - -
 
Date/Time
WST
Temp

°C
Wind Pressure Rain
since 9am
mm
Weather Cloud Vis
km
Sea
Height
m
Swell
Dir
 
Speed
knots
Gust
knots
hPa Trend Height
m
Period
s
Dir
23/11:30pm 21.1 SSW 12 16 1012.6 - 0.0 - - 10 - - - -
23/11:00pm 21.3 SSW 15 21 1012.7 - 0.0 - - 10 - - - -
23/10:30pm 21.6 SSW 14 19 1012.8 - 0.0 - - 10 - - - -
23/10:00pm 21.8 SW 13 19 1012.8 - 0.0 - - 10 - - - -
23/09:30pm 22.0 SW 13 17 1012.6 - 0.0 - - 10 - - - -
23/09:00pm 22.2 SW 14 19 1012.5 - 0.0 - - 10 - - - -
23/08:30pm 22.4 SSW 15 18 1012.3 - 0.0 - - 10 - - - -
23/08:00pm 22.8 SSW 15 21 1012.0 - 0.0 - Partly cloudy 10 - - - -
23/07:30pm 23.3 SW 15 19 1011.7 - 0.0 - Partly cloudy 10 - - - -
23/07:00pm 24.1 SSW 14 20 1011.5 - 0.0 - Partly cloudy 10 - - - -
23/06:30pm 25.5 SSW 15 18 1011.1 - 0.0 - Partly cloudy 10 - - - -
23/06:00pm 27.0 SSW 15 19 1010.6 - 0.0 - Partly cloudy 10 - - - -
23/05:30pm 28.2 SSW 15 20 1010.4 - 0.0 - Cloudy 10 - - - -
23/05:00pm 28.8 SSW 16 23 1010.3 - 0.0 - Partly cloudy 10 - - - -
23/04:30pm 30.5 SSW 16 22 1010.2 - 0.0 - Partly cloudy 10 - - - -
23/04:00pm 30.8 SSW 16 24 1010.2 - 0.0 - - 10 - - - -
23/03:30pm 31.7 S 15 17 1010.3 - 0.0 - - 10 - - - -
23/03:00pm 32.0 SSW 12 17 1010.4 - 0.0 - - 10 - - - -

Other Formats:

Comma delimited format used in spreadsheet applications
http://www.bom.gov.au/fwo/IDW60701/IDW60701.94302.axf

JavaScript Object Notation format (JSON) in row-major order
http://www.bom.gov.au/fwo/IDW60701/IDW60701.94302.json